Weather at Aeroglobus

Public forecast

Using degrees Celsius for public forecast. Weather courtesy of forecast.io.

Closest aviation weather report (METAR) to Aeroglobus

Closest report is Budapest Liszt Ferenc International Airport, 22.2 nm (41.1 km) SSE.

2022/12/04 12:30 (retrieved 20 minutes ago)

LHBP 041230Z 11009KT 080V140 CAVOK 08/03 Q1021 NOSIG

Closest aviation forecast (TAF) to Aeroglobus

Closest forecast is Budapest Liszt Ferenc International Airport, 22.2 nm (41.1 km) SSE.

2022/12/04 12:27 (retrieved 23 minutes ago)

TAF TAF LHBP 041115Z 0412/0512 09009KT CAVOK BECMG 0413/0415 SCT020 BKN070 TEMPO 0415/0423 4000 -RA -SHRA BKN007 OVC020 BECMG 0423/0501 12005KT 5000 BR SCT005 OVC020 TEMPO 0501/0509 1500 BCFG BR OVC004 BECMG 0509/0512 8000 NSW